sensor_id;sensor_type;location;lat;lon;timestamp;P1;durP1;ratioP1;P2;durP2;ratioP2
53833;SDS011;39735;51.432;5.482;2023-03-13T00:00:17;58.83;;;10.27;;
53833;SDS011;39735;51.432;5.482;2023-03-13T00:02:43;51.45;;;9.90;;
53833;SDS011;39735;51.432;5.482;2023-03-13T00:05:10;47.95;;;9.27;;
53833;SDS011;39735;51.432;5.482;2023-03-13T00:07:35;70.97;;;8.85;;
53833;SDS011;39735;51.432;5.482;2023-03-13T00:10:01;60.65;;;8.93;;
53833;SDS011;39735;51.432;5.482;2023-03-13T00:12:26;46.40;;;6.68;;
53833;SDS011;39735;51.432;5.482;2023-03-13T00:14:52;49.30;;;8.55;;
53833;SDS011;39735;51.432;5.482;2023-03-13T00:17:17;61.53;;;9.05;;
53833;SDS011;39735;51.432;5.482;2023-03-13T00:19:42;46.53;;;8.95;;
53833;SDS011;39735;51.432;5.482;2023-03-13T00:22:08;60.28;;;10.23;;
53833;SDS011;39735;51.432;5.482;2023-03-13T00:24:33;58.97;;;9.38;;
53833;SDS011;39735;51.432;5.482;2023-03-13T00:26:58;51.28;;;9.40;;
53833;SDS011;39735;51.432;5.482;2023-03-13T00:29:27;50.85;;;8.60;;
53833;SDS011;39735;51.432;5.482;2023-03-13T00:31:53;45.70;;;7.88;;
53833;SDS011;39735;51.432;5.482;2023-03-13T00:34:18;69.30;;;11.23;;
53833;SDS011;39735;51.432;5.482;2023-03-13T00:36:44;60.65;;;8.90;;
53833;SDS011;39735;51.432;5.482;2023-03-13T00:39:09;38.40;;;7.93;;
53833;SDS011;39735;51.432;5.482;2023-03-13T00:41:35;55.88;;;8.85;;
53833;SDS011;39735;51.432;5.482;2023-03-13T00:44:01;51.92;;;8.23;;
53833;SDS011;39735;51.432;5.482;2023-03-13T00:46:27;49.22;;;5.90;;
53833;SDS011;39735;51.432;5.482;2023-03-13T00:48:53;53.97;;;6.18;;
53833;SDS011;39735;51.432;5.482;2023-03-13T00:51:19;36.42;;;6.72;;
53833;SDS011;39735;51.432;5.482;2023-03-13T00:53:45;45.20;;;7.40;;
53833;SDS011;39735;51.432;5.482;2023-03-13T00:56:19;57.92;;;6.95;;
53833;SDS011;39735;51.432;5.482;2023-03-13T00:58:46;45.97;;;8.27;;
53833;SDS011;39735;51.432;5.482;2023-03-13T01:01:17;49.95;;;7.78;;
53833;SDS011;39735;51.432;5.482;2023-03-13T01:03:54;30.20;;;6.07;;
53833;SDS011;39735;51.432;5.482;2023-03-13T01:06:22;44.08;;;8.30;;
53833;SDS011;39735;51.432;5.482;2023-03-13T01:08:49;48.60;;;8.45;;
53833;SDS011;39735;51.432;5.482;2023-03-13T01:11:16;42.65;;;6.35;;
53833;SDS011;39735;51.432;5.482;2023-03-13T01:13:49;45.33;;;7.95;;
53833;SDS011;39735;51.432;5.482;2023-03-13T01:16:15;28.58;;;6.55;;
53833;SDS011;39735;51.432;5.482;2023-03-13T01:18:43;34.58;;;6.80;;
53833;SDS011;39735;51.432;5.482;2023-03-13T01:21:10;47.88;;;8.00;;
53833;SDS011;39735;51.432;5.482;2023-03-13T01:23:36;53.25;;;7.30;;
53833;SDS011;39735;51.432;5.482;2023-03-13T01:26:03;49.13;;;7.43;;
53833;SDS011;39735;51.432;5.482;2023-03-13T01:28:29;34.15;;;6.80;;
53833;SDS011;39735;51.432;5.482;2023-03-13T01:30:55;36.00;;;7.70;;
53833;SDS011;39735;51.432;5.482;2023-03-13T01:33:20;36.15;;;5.30;;
53833;SDS011;39735;51.432;5.482;2023-03-13T01:35:46;23.27;;;5.88;;
53833;SDS011;39735;51.432;5.482;2023-03-13T01:38:11;47.15;;;7.68;;
53833;SDS011;39735;51.432;5.482;2023-03-13T01:40:44;27.85;;;6.22;;
53833;SDS011;39735;51.432;5.482;2023-03-13T01:43:14;35.45;;;5.45;;
53833;SDS011;39735;51.432;5.482;2023-03-13T01:45:55;38.58;;;6.47;;
53833;SDS011;39735;51.432;5.482;2023-03-13T01:51:08;23.67;;;5.60;;
53833;SDS011;39735;51.432;5.482;2023-03-13T01:53:36;21.13;;;5.65;;
53833;SDS011;39735;51.432;5.482;2023-03-13T01:56:06;33.50;;;6.70;;
53833;SDS011;39735;51.432;5.482;2023-03-13T01:58:35;31.52;;;5.03;;
53833;SDS011;39735;51.432;5.482;2023-03-13T02:01:01;21.63;;;5.20;;
53833;SDS011;39735;51.432;5.482;2023-03-13T02:03:28;26.10;;;6.18;;
53833;SDS011;39735;51.432;5.482;2023-03-13T02:05:53;29.85;;;4.93;;
53833;SDS011;39735;51.432;5.482;2023-03-13T02:08:20;17.88;;;4.93;;
53833;SDS011;39735;51.432;5.482;2023-03-13T02:10:53;9.98;;;3.15;;
53833;SDS011;39735;51.432;5.482;2023-03-13T02:13:40;14.80;;;4.63;;
53833;SDS011;39735;51.432;5.482;2023-03-13T02:16:07;24.10;;;6.75;;
53833;SDS011;39735;51.432;5.482;2023-03-13T02:18:32;22.45;;;5.13;;
53833;SDS011;39735;51.432;5.482;2023-03-13T02:21:04;23.00;;;5.03;;
53833;SDS011;39735;51.432;5.482;2023-03-13T02:23:47;14.07;;;4.22;;
53833;SDS011;39735;51.432;5.482;2023-03-13T02:26:34;13.85;;;4.53;;
53833;SDS011;39735;51.432;5.482;2023-03-13T02:29:00;27.73;;;6.25;;
53833;SDS011;39735;51.432;5.482;2023-03-13T02:31:25;17.58;;;5.30;;
53833;SDS011;39735;51.432;5.482;2023-03-13T02:33:51;22.63;;;4.72;;
53833;SDS011;39735;51.432;5.482;2023-03-13T02:36:17;13.82;;;5.53;;
53833;SDS011;39735;51.432;5.482;2023-03-13T02:38:47;16.65;;;5.38;;
53833;SDS011;39735;51.432;5.482;2023-03-13T02:41:17;13.20;;;5.03;;
53833;SDS011;39735;51.432;5.482;2023-03-13T02:43:43;16.00;;;5.95;;
53833;SDS011;39735;51.432;5.482;2023-03-13T02:46:10;25.17;;;8.07;;
53833;SDS011;39735;51.432;5.482;2023-03-13T02:48:38;19.98;;;5.60;;
53833;SDS011;39735;51.432;5.482;2023-03-13T02:53:59;20.02;;;6.00;;
53833;SDS011;39735;51.432;5.482;2023-03-13T02:56:27;17.95;;;6.05;;
53833;SDS011;39735;51.432;5.482;2023-03-13T02:58:54;14.23;;;5.57;;
53833;SDS011;39735;51.432;5.482;2023-03-13T03:01:19;8.02;;;4.75;;
53833;SDS011;39735;51.432;5.482;2023-03-13T03:03:45;11.57;;;5.32;;
53833;SDS011;39735;51.432;5.482;2023-03-13T03:06:10;6.38;;;5.32;;
53833;SDS011;39735;51.432;5.482;2023-03-13T03:08:35;13.57;;;5.35;;
53833;SDS011;39735;51.432;5.482;2023-03-13T03:11:01;14.15;;;5.30;;
53833;SDS011;39735;51.432;5.482;2023-03-13T03:13:26;17.00;;;4.63;;
53833;SDS011;39735;51.432;5.482;2023-03-13T03:15:52;9.02;;;4.10;;
53833;SDS011;39735;51.432;5.482;2023-03-13T03:18:17;6.05;;;4.20;;
53833;SDS011;39735;51.432;5.482;2023-03-13T03:20:43;15.25;;;3.33;;
53833;SDS011;39735;51.432;5.482;2023-03-13T03:23:09;13.93;;;4.97;;
53833;SDS011;39735;51.432;5.482;2023-03-13T03:25:34;9.35;;;4.65;;
53833;SDS011;39735;51.432;5.482;2023-03-13T03:27:59;12.95;;;4.47;;
53833;SDS011;39735;51.432;5.482;2023-03-13T03:30:25;7.85;;;4.63;;
53833;SDS011;39735;51.432;5.482;2023-03-13T03:32:50;11.48;;;4.00;;
53833;SDS011;39735;51.432;5.482;2023-03-13T03:35:15;11.27;;;5.65;;
53833;SDS011;39735;51.432;5.482;2023-03-13T03:37:41;9.25;;;3.35;;
53833;SDS011;39735;51.432;5.482;2023-03-13T03:40:06;9.25;;;4.57;;
53833;SDS011;39735;51.432;5.482;2023-03-13T03:42:33;10.73;;;3.58;;
53833;SDS011;39735;51.432;5.482;2023-03-13T03:44:58;9.70;;;4.18;;
53833;SDS011;39735;51.432;5.482;2023-03-13T03:47:24;9.68;;;3.65;;
53833;SDS011;39735;51.432;5.482;2023-03-13T03:49:49;4.03;;;3.30;;
53833;SDS011;39735;51.432;5.482;2023-03-13T03:52:14;9.55;;;3.30;;
53833;SDS011;39735;51.432;5.482;2023-03-13T03:54:40;10.75;;;3.65;;
53833;SDS011;39735;51.432;5.482;2023-03-13T03:57:05;16.95;;;5.00;;
53833;SDS011;39735;51.432;5.482;2023-03-13T03:59:31;11.38;;;5.22;;
53833;SDS011;39735;51.432;5.482;2023-03-13T04:01:56;13.30;;;4.47;;
53833;SDS011;39735;51.432;5.482;2023-03-13T04:04:21;8.30;;;3.83;;
53833;SDS011;39735;51.432;5.482;2023-03-13T04:06:47;6.20;;;4.47;;
53833;SDS011;39735;51.432;5.482;2023-03-13T04:09:12;5.18;;;3.40;;
53833;SDS011;39735;51.432;5.482;2023-03-13T04:11:38;5.88;;;4.85;;
53833;SDS011;39735;51.432;5.482;2023-03-13T04:14:03;4.43;;;4.03;;
53833;SDS011;39735;51.432;5.482;2023-03-13T04:16:28;14.23;;;5.03;;
53833;SDS011;39735;51.432;5.482;2023-03-13T04:18:54;9.18;;;4.63;;
53833;SDS011;39735;51.432;5.482;2023-03-13T04:21:19;9.98;;;4.60;;
53833;SDS011;39735;51.432;5.482;2023-03-13T04:23:44;14.55;;;4.65;;
53833;SDS011;39735;51.432;5.482;2023-03-13T04:26:10;13.82;;;5.32;;
53833;SDS011;39735;51.432;5.482;2023-03-13T04:28:35;13.95;;;5.38;;
53833;SDS011;39735;51.432;5.482;2023-03-13T04:31:00;4.20;;;3.50;;
53833;SDS011;39735;51.432;5.482;2023-03-13T04:33:26;20.45;;;5.90;;
53833;SDS011;39735;51.432;5.482;2023-03-13T04:35:52;19.33;;;5.43;;
53833;SDS011;39735;51.432;5.482;2023-03-13T04:38:17;19.30;;;3.92;;
53833;SDS011;39735;51.432;5.482;2023-03-13T04:40:42;21.40;;;5.40;;
53833;SDS011;39735;51.432;5.482;2023-03-13T04:43:08;6.13;;;3.42;;
53833;SDS011;39735;51.432;5.482;2023-03-13T04:45:33;11.60;;;4.28;;
53833;SDS011;39735;51.432;5.482;2023-03-13T04:47:59;10.02;;;4.75;;
53833;SDS011;39735;51.432;5.482;2023-03-13T04:50:24;8.35;;;5.30;;
53833;SDS011;39735;51.432;5.482;2023-03-13T04:52:49;20.20;;;7.38;;
53833;SDS011;39735;51.432;5.482;2023-03-13T04:55:15;6.93;;;4.10;;
53833;SDS011;39735;51.432;5.482;2023-03-13T04:57:41;4.53;;;4.10;;
53833;SDS011;39735;51.432;5.482;2023-03-13T05:00:07;9.93;;;5.20;;
53833;SDS011;39735;51.432;5.482;2023-03-13T05:02:34;4.22;;;3.33;;
53833;SDS011;39735;51.432;5.482;2023-03-13T05:04:59;16.70;;;3.17;;
53833;SDS011;39735;51.432;5.482;2023-03-13T05:07:25;3.78;;;3.33;;
53833;SDS011;39735;51.432;5.482;2023-03-13T05:09:50;15.90;;;4.38;;
53833;SDS011;39735;51.432;5.482;2023-03-13T05:12:15;8.23;;;3.22;;
53833;SDS011;39735;51.432;5.482;2023-03-13T05:14:41;15.70;;;5.00;;
53833;SDS011;39735;51.432;5.482;2023-03-13T05:17:06;8.35;;;4.65;;
53833;SDS011;39735;51.432;5.482;2023-03-13T05:19:31;9.00;;;4.28;;
53833;SDS011;39735;51.432;5.482;2023-03-13T05:21:57;5.88;;;4.25;;
53833;SDS011;39735;51.432;5.482;2023-03-13T05:24:22;25.35;;;4.38;;
53833;SDS011;39735;51.432;5.482;2023-03-13T05:26:47;12.07;;;5.05;;
53833;SDS011;39735;51.432;5.482;2023-03-13T05:29:13;12.90;;;5.30;;
53833;SDS011;39735;51.432;5.482;2023-03-13T05:31:38;8.68;;;3.17;;
53833;SDS011;39735;51.432;5.482;2023-03-13T05:34:03;19.95;;;4.05;;
53833;SDS011;39735;51.432;5.482;2023-03-13T05:36:29;17.45;;;4.10;;
53833;SDS011;39735;51.432;5.482;2023-03-13T05:38:54;6.90;;;3.90;;
53833;SDS011;39735;51.432;5.482;2023-03-13T05:41:19;7.05;;;3.35;;
53833;SDS011;39735;51.432;5.482;2023-03-13T05:43:45;11.32;;;3.20;;
53833;SDS011;39735;51.432;5.482;2023-03-13T05:46:10;26.13;;;6.88;;
53833;SDS011;39735;51.432;5.482;2023-03-13T05:48:36;23.55;;;3.35;;
53833;SDS011;39735;51.432;5.482;2023-03-13T05:51:01;11.50;;;3.72;;
53833;SDS011;39735;51.432;5.482;2023-03-13T05:53:26;9.52;;;3.30;;
53833;SDS011;39735;51.432;5.482;2023-03-13T05:55:52;11.40;;;4.32;;
53833;SDS011;39735;51.432;5.482;2023-03-13T05:58:17;15.43;;;3.47;;
53833;SDS011;39735;51.432;5.482;2023-03-13T06:00:42;18.30;;;3.40;;
53833;SDS011;39735;51.432;5.482;2023-03-13T06:03:08;24.98;;;5.15;;
53833;SDS011;39735;51.432;5.482;2023-03-13T06:05:33;9.07;;;3.72;;
53833;SDS011;39735;51.432;5.482;2023-03-13T06:07:59;12.10;;;1.80;;
53833;SDS011;39735;51.432;5.482;2023-03-13T06:10:27;10.35;;;2.92;;
53833;SDS011;39735;51.432;5.482;2023-03-13T06:12:55;12.68;;;2.70;;
53833;SDS011;39735;51.432;5.482;2023-03-13T06:15:21;15.05;;;4.00;;
53833;SDS011;39735;51.432;5.482;2023-03-13T06:17:47;20.65;;;3.60;;
53833;SDS011;39735;51.432;5.482;2023-03-13T06:20:12;27.67;;;4.30;;
53833;SDS011;39735;51.432;5.482;2023-03-13T06:22:38;17.60;;;3.75;;
53833;SDS011;39735;51.432;5.482;2023-03-13T06:25:04;25.52;;;3.83;;
53833;SDS011;39735;51.432;5.482;2023-03-13T06:27:30;10.82;;;4.22;;
53833;SDS011;39735;51.432;5.482;2023-03-13T06:29:56;15.95;;;4.50;;
53833;SDS011;39735;51.432;5.482;2023-03-13T06:32:21;16.27;;;3.33;;
53833;SDS011;39735;51.432;5.482;2023-03-13T06:34:46;7.72;;;4.07;;
53833;SDS011;39735;51.432;5.482;2023-03-13T06:37:12;10.55;;;3.92;;
53833;SDS011;39735;51.432;5.482;2023-03-13T06:39:37;19.10;;;4.28;;
53833;SDS011;39735;51.432;5.482;2023-03-13T06:42:02;11.40;;;3.55;;
53833;SDS011;39735;51.432;5.482;2023-03-13T06:44:28;11.15;;;4.80;;
53833;SDS011;39735;51.432;5.482;2023-03-13T06:46:53;14.20;;;3.95;;
53833;SDS011;39735;51.432;5.482;2023-03-13T06:49:19;11.13;;;4.45;;
53833;SDS011;39735;51.432;5.482;2023-03-13T06:51:44;16.35;;;3.83;;
53833;SDS011;39735;51.432;5.482;2023-03-13T06:54:10;34.33;;;5.50;;
53833;SDS011;39735;51.432;5.482;2023-03-13T06:56:35;17.85;;;4.53;;
53833;SDS011;39735;51.432;5.482;2023-03-13T06:59:00;13.60;;;3.83;;
53833;SDS011;39735;51.432;5.482;2023-03-13T07:01:26;17.27;;;3.75;;
53833;SDS011;39735;51.432;5.482;2023-03-13T07:03:51;12.05;;;3.38;;
53833;SDS011;39735;51.432;5.482;2023-03-13T07:06:16;20.67;;;4.75;;
53833;SDS011;39735;51.432;5.482;2023-03-13T07:08:42;17.25;;;4.90;;
53833;SDS011;39735;51.432;5.482;2023-03-13T07:11:09;16.15;;;5.28;;
53833;SDS011;39735;51.432;5.482;2023-03-13T07:13:35;17.08;;;4.40;;
53833;SDS011;39735;51.432;5.482;2023-03-13T07:16:01;29.45;;;6.78;;
53833;SDS011;39735;51.432;5.482;2023-03-13T07:18:30;18.33;;;3.05;;
53833;SDS011;39735;51.432;5.482;2023-03-13T07:20:57;27.30;;;4.82;;
53833;SDS011;39735;51.432;5.482;2023-03-13T07:23:24;27.30;;;3.47;;
53833;SDS011;39735;51.432;5.482;2023-03-13T07:25:52;23.38;;;4.85;;
53833;SDS011;39735;51.432;5.482;2023-03-13T07:28:21;22.55;;;4.53;;
53833;SDS011;39735;51.432;5.482;2023-03-13T07:30:47;29.63;;;5.25;;
53833;SDS011;39735;51.432;5.482;2023-03-13T07:33:13;53.97;;;5.10;;
53833;SDS011;39735;51.432;5.482;2023-03-13T07:35:39;8.52;;;2.97;;
53833;SDS011;39735;51.432;5.482;2023-03-13T07:38:04;17.50;;;4.22;;
53833;SDS011;39735;51.432;5.482;2023-03-13T07:40:29;29.13;;;4.35;;
53833;SDS011;39735;51.432;5.482;2023-03-13T07:42:55;12.93;;;3.03;;
53833;SDS011;39735;51.432;5.482;2023-03-13T07:45:20;19.83;;;4.45;;
53833;SDS011;39735;51.432;5.482;2023-03-13T07:47:45;19.63;;;4.97;;
53833;SDS011;39735;51.432;5.482;2023-03-13T07:50:11;21.38;;;5.28;;
53833;SDS011;39735;51.432;5.482;2023-03-13T07:52:36;29.55;;;5.47;;
53833;SDS011;39735;51.432;5.482;2023-03-13T07:55:02;17.27;;;4.57;;
53833;SDS011;39735;51.432;5.482;2023-03-13T07:57:27;23.80;;;4.38;;
53833;SDS011;39735;51.432;5.482;2023-03-13T07:59:52;10.90;;;3.92;;
53833;SDS011;39735;51.432;5.482;2023-03-13T08:02:18;17.20;;;3.90;;
53833;SDS011;39735;51.432;5.482;2023-03-13T08:04:43;22.98;;;4.80;;
53833;SDS011;39735;51.432;5.482;2023-03-13T08:07:09;25.17;;;4.18;;
53833;SDS011;39735;51.432;5.482;2023-03-13T08:09:35;11.80;;;3.67;;
53833;SDS011;39735;51.432;5.482;2023-03-13T08:12:00;25.60;;;3.72;;
53833;SDS011;39735;51.432;5.482;2023-03-13T08:14:26;14.95;;;4.40;;
53833;SDS011;39735;51.432;5.482;2023-03-13T08:16:51;21.15;;;5.38;;
53833;SDS011;39735;51.432;5.482;2023-03-13T08:19:17;14.43;;;3.50;;
53833;SDS011;39735;51.432;5.482;2023-03-13T08:21:42;8.18;;;3.05;;
53833;SDS011;39735;51.432;5.482;2023-03-13T08:24:09;14.68;;;4.20;;
53833;SDS011;39735;51.432;5.482;2023-03-13T08:26:36;21.35;;;5.47;;
53833;SDS011;39735;51.432;5.482;2023-03-13T08:29:03;26.20;;;3.42;;
53833;SDS011;39735;51.432;5.482;2023-03-13T08:31:34;30.65;;;3.15;;
53833;SDS011;39735;51.432;5.482;2023-03-13T08:34:01;8.52;;;2.63;;
53833;SDS011;39735;51.432;5.482;2023-03-13T08:36:31;23.48;;;4.70;;
53833;SDS011;39735;51.432;5.482;2023-03-13T08:38:58;12.55;;;3.35;;
53833;SDS011;39735;51.432;5.482;2023-03-13T08:41:26;10.38;;;3.35;;
53833;SDS011;39735;51.432;5.482;2023-03-13T08:43:53;15.25;;;3.03;;
53833;SDS011;39735;51.432;5.482;2023-03-13T08:46:20;12.05;;;3.15;;
53833;SDS011;39735;51.432;5.482;2023-03-13T08:48:49;11.38;;;4.22;;
53833;SDS011;39735;51.432;5.482;2023-03-13T08:51:15;9.13;;;3.58;;
53833;SDS011;39735;51.432;5.482;2023-03-13T08:53:42;27.02;;;3.53;;
53833;SDS011;39735;51.432;5.482;2023-03-13T08:56:08;8.55;;;2.97;;
53833;SDS011;39735;51.432;5.482;2023-03-13T08:58:35;16.20;;;3.35;;
53833;SDS011;39735;51.432;5.482;2023-03-13T09:01:01;12.95;;;3.13;;
53833;SDS011;39735;51.432;5.482;2023-03-13T09:03:31;22.85;;;3.08;;
53833;SDS011;39735;51.432;5.482;2023-03-13T09:06:00;9.95;;;3.45;;
53833;SDS011;39735;51.432;5.482;2023-03-13T09:08:26;9.68;;;2.65;;
53833;SDS011;39735;51.432;5.482;2023-03-13T09:10:59;22.60;;;2.53;;
53833;SDS011;39735;51.432;5.482;2023-03-13T09:13:26;18.30;;;3.47;;
53833;SDS011;39735;51.432;5.482;2023-03-13T09:15:56;16.42;;;3.17;;
53833;SDS011;39735;51.432;5.482;2023-03-13T09:18:23;19.15;;;3.35;;
53833;SDS011;39735;51.432;5.482;2023-03-13T09:20:49;9.05;;;2.28;;
53833;SDS011;39735;51.432;5.482;2023-03-13T09:23:14;8.93;;;2.45;;
53833;SDS011;39735;51.432;5.482;2023-03-13T09:25:40;4.68;;;2.80;;
53833;SDS011;39735;51.432;5.482;2023-03-13T09:28:05;15.88;;;3.83;;
53833;SDS011;39735;51.432;5.482;2023-03-13T09:30:31;28.77;;;3.47;;
53833;SDS011;39735;51.432;5.482;2023-03-13T09:32:56;15.82;;;2.88;;
53833;SDS011;39735;51.432;5.482;2023-03-13T09:35:21;12.95;;;2.42;;
53833;SDS011;39735;51.432;5.482;2023-03-13T09:37:47;11.13;;;3.30;;
53833;SDS011;39735;51.432;5.482;2023-03-13T09:40:13;5.75;;;2.05;;
53833;SDS011;39735;51.432;5.482;2023-03-13T09:42:53;16.13;;;2.70;;
53833;SDS011;39735;51.432;5.482;2023-03-13T09:45:24;13.20;;;2.33;;
53833;SDS011;39735;51.432;5.482;2023-03-13T09:47:59;11.48;;;1.63;;
53833;SDS011;39735;51.432;5.482;2023-03-13T09:50:32;11.73;;;3.53;;
53833;SDS011;39735;51.432;5.482;2023-03-13T09:53:02;18.73;;;1.88;;
53833;SDS011;39735;51.432;5.482;2023-03-13T09:55:37;25.40;;;3.25;;
53833;SDS011;39735;51.432;5.482;2023-03-13T10:01:03;13.98;;;3.08;;
53833;SDS011;39735;51.432;5.482;2023-03-13T10:03:30;6.13;;;1.20;;
53833;SDS011;39735;51.432;5.482;2023-03-13T10:06:09;18.40;;;1.65;;
53833;SDS011;39735;51.432;5.482;2023-03-13T10:08:37;11.80;;;2.40;;
53833;SDS011;39735;51.432;5.482;2023-03-13T10:16:34;11.70;;;2.13;;
53833;SDS011;39735;51.432;5.482;2023-03-13T10:19:08;12.57;;;2.72;;
53833;SDS011;39735;51.432;5.482;2023-03-13T10:21:36;9.38;;;2.30;;
53833;SDS011;39735;51.432;5.482;2023-03-13T10:26:34;12.25;;;1.48;;
53833;SDS011;39735;51.432;5.482;2023-03-13T10:29:20;12.77;;;1.58;;
53833;SDS011;39735;51.432;5.482;2023-03-13T10:31:49;8.27;;;1.10;;
53833;SDS011;39735;51.432;5.482;2023-03-13T10:34:20;4.90;;;1.65;;
53833;SDS011;39735;51.432;5.482;2023-03-13T10:36:46;4.53;;;2.00;;
53833;SDS011;39735;51.432;5.482;2023-03-13T10:39:14;19.15;;;2.47;;
53833;SDS011;39735;51.432;5.482;2023-03-13T10:41:41;5.45;;;1.20;;
53833;SDS011;39735;51.432;5.482;2023-03-13T10:44:14;11.68;;;1.77;;
53833;SDS011;39735;51.432;5.482;2023-03-13T10:46:42;10.93;;;1.15;;
53833;SDS011;39735;51.432;5.482;2023-03-13T10:49:16;5.35;;;1.05;;
53833;SDS011;39735;51.432;5.482;2023-03-13T10:51:47;7.07;;;1.65;;
53833;SDS011;39735;51.432;5.482;2023-03-13T10:54:24;2.17;;;0.73;;
53833;SDS011;39735;51.432;5.482;2023-03-13T10:56:51;1.35;;;0.80;;
53833;SDS011;39735;51.432;5.482;2023-03-13T10:59:23;11.07;;;0.90;;
53833;SDS011;39735;51.432;5.482;2023-03-13T11:01:50;10.60;;;1.88;;
53833;SDS011;39735;51.432;5.482;2023-03-13T11:04:32;4.30;;;1.25;;
53833;SDS011;39735;51.432;5.482;2023-03-13T11:07:10;8.07;;;2.25;;
53833;SDS011;39735;51.432;5.482;2023-03-13T11:09:39;4.43;;;1.20;;
53833;SDS011;39735;51.432;5.482;2023-03-13T11:12:07;13.23;;;1.23;;
53833;SDS011;39735;51.432;5.482;2023-03-13T11:14:36;7.57;;;2.08;;
53833;SDS011;39735;51.432;5.482;2023-03-13T11:19:54;10.90;;;1.33;;
53833;SDS011;39735;51.432;5.482;2023-03-13T11:27:43;4.50;;;1.95;;
53833;SDS011;39735;51.432;5.482;2023-03-13T11:33:33;6.45;;;1.48;;
53833;SDS011;39735;51.432;5.482;2023-03-13T11:38:34;13.35;;;1.48;;
53833;SDS011;39735;51.432;5.482;2023-03-13T11:41:07;8.90;;;1.27;;
53833;SDS011;39735;51.432;5.482;2023-03-13T11:46:57;14.63;;;2.13;;
53833;SDS011;39735;51.432;5.482;2023-03-13T11:52:28;15.73;;;1.33;;
53833;SDS011;39735;51.432;5.482;2023-03-13T11:57:36;7.68;;;2.50;;
53833;SDS011;39735;51.432;5.482;2023-03-13T12:02:58;3.60;;;1.27;;
53833;SDS011;39735;51.432;5.482;2023-03-13T12:05:39;14.77;;;1.83;;
53833;SDS011;39735;51.432;5.482;2023-03-13T12:08:11;21.13;;;1.40;;
53833;SDS011;39735;51.432;5.482;2023-03-13T12:10:43;4.82;;;1.33;;
53833;SDS011;39735;51.432;5.482;2023-03-13T12:13:12;4.53;;;1.27;;
53833;SDS011;39735;51.432;5.482;2023-03-13T12:15:55;7.88;;;1.70;;
53833;SDS011;39735;51.432;5.482;2023-03-13T12:18:25;5.00;;;1.55;;
53833;SDS011;39735;51.432;5.482;2023-03-13T12:21:03;7.90;;;3.97;;
53833;SDS011;39735;51.432;5.482;2023-03-13T12:26:07;5.72;;;1.58;;
53833;SDS011;39735;51.432;5.482;2023-03-13T12:31:37;19.27;;;1.63;;
53833;SDS011;39735;51.432;5.482;2023-03-13T12:36:49;7.93;;;1.15;;
53833;SDS011;39735;51.432;5.482;2023-03-13T12:39:21;3.42;;;1.55;;
53833;SDS011;39735;51.432;5.482;2023-03-13T12:44:58;9.68;;;2.00;;
53833;SDS011;39735;51.432;5.482;2023-03-13T12:47:27;4.28;;;1.98;;
53833;SDS011;39735;51.432;5.482;2023-03-13T13:00:36;29.55;;;1.85;;
53833;SDS011;39735;51.432;5.482;2023-03-13T13:03:14;12.55;;;1.73;;
53833;SDS011;39735;51.432;5.482;2023-03-13T13:05:58;6.57;;;1.42;;
53833;SDS011;39735;51.432;5.482;2023-03-13T13:08:40;6.07;;;1.77;;
53833;SDS011;39735;51.432;5.482;2023-03-13T13:16:59;12.82;;;1.90;;
53833;SDS011;39735;51.432;5.482;2023-03-13T13:25:01;9.65;;;1.77;;
53833;SDS011;39735;51.432;5.482;2023-03-13T13:28:21;17.65;;;2.55;;
53833;SDS011;39735;51.432;5.482;2023-03-13T13:30:51;24.85;;;3.50;;
53833;SDS011;39735;51.432;5.482;2023-03-13T13:38:39;1.52;;;1.35;;
53833;SDS011;39735;51.432;5.482;2023-03-13T13:43:37;3.25;;;1.45;;
53833;SDS011;39735;51.432;5.482;2023-03-13T13:48:39;13.02;;;1.50;;
53833;SDS011;39735;51.432;5.482;2023-03-13T13:53:33;2.08;;;0.80;;
53833;SDS011;39735;51.432;5.482;2023-03-13T13:56:24;3.92;;;1.45;;
53833;SDS011;39735;51.432;5.482;2023-03-13T13:58:53;10.20;;;1.48;;
53833;SDS011;39735;51.432;5.482;2023-03-13T14:01:21;8.48;;;1.00;;
53833;SDS011;39735;51.432;5.482;2023-03-13T14:03:46;6.07;;;1.80;;
53833;SDS011;39735;51.432;5.482;2023-03-13T14:06:27;4.63;;;1.17;;
53833;SDS011;39735;51.432;5.482;2023-03-13T14:09:01;6.65;;;1.55;;
53833;SDS011;39735;51.432;5.482;2023-03-13T14:11:38;5.47;;;1.13;;
53833;SDS011;39735;51.432;5.482;2023-03-13T14:14:12;13.35;;;1.67;;
53833;SDS011;39735;51.432;5.482;2023-03-13T14:16:42;6.65;;;0.70;;
53833;SDS011;39735;51.432;5.482;2023-03-13T14:21:48;23.70;;;1.52;;
53833;SDS011;39735;51.432;5.482;2023-03-13T14:24:14;5.78;;;1.73;;
53833;SDS011;39735;51.432;5.482;2023-03-13T14:26:43;17.60;;;3.53;;
53833;SDS011;39735;51.432;5.482;2023-03-13T14:29:14;8.07;;;1.60;;
53833;SDS011;39735;51.432;5.482;2023-03-13T14:31:41;4.53;;;1.60;;
53833;SDS011;39735;51.432;5.482;2023-03-13T14:34:15;9.75;;;1.73;;
53833;SDS011;39735;51.432;5.482;2023-03-13T14:36:53;5.03;;;1.33;;
53833;SDS011;39735;51.432;5.482;2023-03-13T14:42:16;2.70;;;1.95;;
53833;SDS011;39735;51.432;5.482;2023-03-13T14:44:42;3.38;;;1.20;;
53833;SDS011;39735;51.432;5.482;2023-03-13T14:47:20;8.85;;;1.50;;
53833;SDS011;39735;51.432;5.482;2023-03-13T14:49:48;6.45;;;1.83;;
53833;SDS011;39735;51.432;5.482;2023-03-13T14:52:23;17.98;;;2.90;;
53833;SDS011;39735;51.432;5.482;2023-03-13T14:57:31;15.48;;;1.70;;
53833;SDS011;39735;51.432;5.482;2023-03-13T15:05:46;11.77;;;1.17;;
53833;SDS011;39735;51.432;5.482;2023-03-13T15:08:27;12.13;;;2.15;;
53833;SDS011;39735;51.432;5.482;2023-03-13T15:10:53;11.38;;;2.03;;
53833;SDS011;39735;51.432;5.482;2023-03-13T15:15:48;12.77;;;3.90;;
53833;SDS011;39735;51.432;5.482;2023-03-13T15:18:24;31.42;;;3.50;;
53833;SDS011;39735;51.432;5.482;2023-03-13T15:20:55;7.55;;;1.52;;
53833;SDS011;39735;51.432;5.482;2023-03-13T15:23:47;15.45;;;3.35;;
53833;SDS011;39735;51.432;5.482;2023-03-13T15:26:24;14.48;;;3.38;;
53833;SDS011;39735;51.432;5.482;2023-03-13T15:28:49;17.77;;;2.72;;
53833;SDS011;39735;51.432;5.482;2023-03-13T15:31:15;9.70;;;1.88;;
53833;SDS011;39735;51.432;5.482;2023-03-13T15:33:41;6.70;;;2.00;;
53833;SDS011;39735;51.432;5.482;2023-03-13T15:36:07;3.78;;;1.83;;
53833;SDS011;39735;51.432;5.482;2023-03-13T15:38:33;13.02;;;2.47;;
53833;SDS011;39735;51.432;5.482;2023-03-13T15:40:58;8.20;;;2.38;;
53833;SDS011;39735;51.432;5.482;2023-03-13T15:43:23;9.75;;;2.17;;
53833;SDS011;39735;51.432;5.482;2023-03-13T15:45:50;7.82;;;2.00;;
53833;SDS011;39735;51.432;5.482;2023-03-13T15:48:20;6.97;;;1.38;;
53833;SDS011;39735;51.432;5.482;2023-03-13T15:50:53;9.18;;;1.88;;
53833;SDS011;39735;51.432;5.482;2023-03-13T15:55:46;6.32;;;2.58;;
53833;SDS011;39735;51.432;5.482;2023-03-13T15:58:11;12.30;;;2.88;;
53833;SDS011;39735;51.432;5.482;2023-03-13T16:00:37;15.48;;;2.15;;
53833;SDS011;39735;51.432;5.482;2023-03-13T16:03:03;14.65;;;2.13;;
53833;SDS011;39735;51.432;5.482;2023-03-13T16:05:29;14.77;;;3.20;;
53833;SDS011;39735;51.432;5.482;2023-03-13T16:07:54;16.83;;;3.70;;
53833;SDS011;39735;51.432;5.482;2023-03-13T16:10:24;13.68;;;2.78;;
53833;SDS011;39735;51.432;5.482;2023-03-13T16:12:51;18.50;;;1.90;;
53833;SDS011;39735;51.432;5.482;2023-03-13T16:15:17;19.65;;;2.08;;
53833;SDS011;39735;51.432;5.482;2023-03-13T16:17:42;15.77;;;3.03;;
53833;SDS011;39735;51.432;5.482;2023-03-13T16:20:16;16.85;;;3.25;;
53833;SDS011;39735;51.432;5.482;2023-03-13T16:22:42;9.93;;;2.70;;
53833;SDS011;39735;51.432;5.482;2023-03-13T16:25:08;12.57;;;3.17;;
53833;SDS011;39735;51.432;5.482;2023-03-13T16:27:34;6.50;;;2.63;;
53833;SDS011;39735;51.432;5.482;2023-03-13T16:29:59;15.85;;;3.13;;